createdAt,value
2017-06-25T00:01:29.717Z,-58
2017-06-25T00:03:57.007Z,-58
2017-06-25T00:06:24.690Z,-59
2017-06-25T00:08:51.974Z,-57
2017-06-25T00:11:19.266Z,-58
2017-06-25T00:13:46.546Z,-59
2017-06-25T00:16:13.819Z,-57
2017-06-25T00:18:41.107Z,-58
2017-06-25T00:21:08.377Z,-57
2017-06-25T00:26:14.680Z,-56
2017-06-25T00:28:41.974Z,-55
2017-06-25T00:31:09.238Z,-55
2017-06-25T00:33:36.565Z,-55
2017-06-25T00:36:03.838Z,-55
2017-06-25T00:38:31.133Z,-56
2017-06-25T00:40:58.805Z,-54
2017-06-25T00:43:26.085Z,-55
2017-06-25T00:45:53.367Z,-55
2017-06-25T00:48:20.644Z,-56
2017-06-25T00:50:47.928Z,-55
2017-06-25T00:53:20.644Z,-56
2017-06-25T00:55:47.936Z,-54
2017-06-25T00:58:15.222Z,-55
2017-06-25T01:00:42.515Z,-55
2017-06-25T01:03:09.803Z,-55
2017-06-25T01:05:37.075Z,-56
2017-06-25T01:08:04.370Z,-57
2017-06-25T01:10:31.640Z,-55
2017-06-25T01:13:01.209Z,-59
2017-06-25T01:15:29.009Z,-57
2017-06-25T01:17:56.263Z,-56
2017-06-25T01:20:23.751Z,-58
2017-06-25T01:22:51.417Z,-57
2017-06-25T01:25:18.676Z,-58
2017-06-25T01:27:46.369Z,-59
2017-06-25T01:30:13.655Z,-59
2017-06-25T01:32:40.939Z,-58
2017-06-25T01:35:09.616Z,-57
2017-06-25T01:37:37.402Z,-58
2017-06-25T01:40:04.688Z,-58
2017-06-25T01:42:31.961Z,-56
2017-06-25T01:44:59.223Z,-58
2017-06-25T01:47:26.515Z,-57
2017-06-25T01:49:53.783Z,-57
2017-06-25T01:52:21.056Z,-58
2017-06-25T01:54:48.323Z,-59
2017-06-25T01:57:15.909Z,-57
2017-06-25T01:59:43.195Z,-58
2017-06-25T02:02:10.478Z,-58
2017-06-25T02:04:37.748Z,-57
2017-06-25T02:07:05.959Z,-59
2017-06-25T02:09:33.282Z,-58
2017-06-25T02:12:00.551Z,-57
2017-06-25T02:14:28.966Z,-58
2017-06-25T02:16:56.499Z,-56
2017-06-25T02:19:24.759Z,-59
2017-06-25T02:21:52.060Z,-57
2017-06-25T02:24:19.324Z,-58
2017-06-25T02:26:47.166Z,-58
2017-06-25T02:29:14.738Z,-59
2017-06-25T02:31:42.046Z,-59
2017-06-25T02:34:09.688Z,-58
2017-06-25T02:36:37.351Z,-57
2017-06-25T02:39:04.635Z,-59
2017-06-25T02:41:31.918Z,-58
2017-06-25T02:43:59.206Z,-59
2017-06-25T02:46:26.471Z,-58
2017-06-25T02:48:53.756Z,-57
2017-06-25T02:51:21.423Z,-58
2017-06-25T02:53:48.731Z,-57
2017-06-25T02:56:16.019Z,-58
2017-06-25T02:58:43.571Z,-59
2017-06-25T03:01:11.258Z,-58
2017-06-25T03:03:38.524Z,-58
2017-06-25T03:06:05.802Z,-56
2017-06-25T03:08:33.090Z,-57
2017-06-25T03:11:00.376Z,-58
2017-06-25T03:13:27.664Z,-59
2017-06-25T03:15:54.946Z,-58
2017-06-25T03:18:22.218Z,-58
2017-06-25T03:20:49.503Z,-58
2017-06-25T03:23:16.768Z,-56
2017-06-25T03:25:44.049Z,-57
2017-06-25T03:28:11.316Z,-58
2017-06-25T03:30:38.584Z,-58
2017-06-25T03:33:05.868Z,-58
2017-06-25T03:35:33.158Z,-59
2017-06-25T03:38:00.435Z,-57
2017-06-25T03:40:28.093Z,-59
2017-06-25T03:42:55.359Z,-58
2017-06-25T03:45:23.048Z,-58
2017-06-25T03:47:50.316Z,-58
2017-06-25T03:50:17.594Z,-55
2017-06-25T03:52:44.857Z,-59
2017-06-25T03:55:12.137Z,-57
2017-06-25T03:57:39.422Z,-58
2017-06-25T04:00:06.680Z,-58
2017-06-25T04:02:33.954Z,-59
2017-06-25T04:05:01.221Z,-59
2017-06-25T04:07:28.488Z,-58
2017-06-25T04:09:55.752Z,-59
2017-06-25T04:12:23.038Z,-58
2017-06-25T04:14:50.304Z,-58
2017-06-25T04:17:17.577Z,-57
2017-06-25T04:19:44.854Z,-56
2017-06-25T04:22:12.140Z,-57
2017-06-25T04:24:39.418Z,-59
2017-06-25T04:27:06.827Z,-58
2017-06-25T04:29:34.117Z,-58
2017-06-25T04:32:01.385Z,-55
2017-06-25T04:34:28.675Z,-57
2017-06-25T04:36:55.952Z,-59
2017-06-25T04:39:23.216Z,-58
2017-06-25T04:41:50.503Z,-57
2017-06-25T04:44:17.776Z,-58
2017-06-25T04:46:45.056Z,-55
2017-06-25T04:49:12.324Z,-58
2017-06-25T04:51:39.606Z,-58
2017-06-25T04:54:06.892Z,-59
2017-06-25T04:56:34.174Z,-57
2017-06-25T04:59:01.455Z,-57
2017-06-25T05:01:28.719Z,-57
2017-06-25T05:03:56.016Z,-57
2017-06-25T05:06:23.289Z,-57
2017-06-25T05:08:50.572Z,-56
2017-06-25T05:11:17.854Z,-57
2017-06-25T05:13:45.143Z,-59
2017-06-25T05:21:30.924Z,-55
2017-06-25T05:23:58.196Z,-56
2017-06-25T05:26:25.487Z,-56
2017-06-25T05:28:52.753Z,-55
2017-06-25T05:31:20.047Z,-55
2017-06-25T05:33:47.304Z,-55
2017-06-25T05:36:14.582Z,-56
2017-06-25T05:38:42.249Z,-55
2017-06-25T05:41:09.528Z,-55
2017-06-25T05:43:36.809Z,-55
2017-06-25T05:46:04.084Z,-55
2017-06-25T05:48:31.371Z,-56
2017-06-25T05:50:58.659Z,-55
2017-06-25T05:53:25.921Z,-55
2017-06-25T05:55:53.197Z,-56
2017-06-25T05:58:20.500Z,-56
2017-06-25T06:00:47.775Z,-55
2017-06-25T06:03:15.063Z,-56
2017-06-25T06:05:42.661Z,-58
2017-06-25T06:08:09.954Z,-55
2017-06-25T06:10:37.246Z,-56
2017-06-25T06:13:04.509Z,-55
2017-06-25T06:15:31.791Z,-55
2017-06-25T06:17:59.079Z,-55
2017-06-25T06:20:26.366Z,-56
2017-06-25T06:22:54.039Z,-55
2017-06-25T06:25:21.317Z,-56
2017-06-25T06:27:48.606Z,-55
2017-06-25T06:30:16.135Z,-56
2017-06-25T06:32:43.400Z,-56
2017-06-25T06:35:10.689Z,-56
2017-06-25T06:37:37.974Z,-56
2017-06-25T06:40:05.245Z,-55
2017-06-25T06:42:32.505Z,-56
2017-06-25T06:44:59.776Z,-56
2017-06-25T06:47:27.066Z,-56
2017-06-25T06:49:54.349Z,-55
2017-06-25T06:52:21.647Z,-55
2017-06-25T06:54:48.913Z,-57
2017-06-25T06:57:16.577Z,-56
2017-06-25T06:59:43.853Z,-56
2017-06-25T07:02:11.121Z,-55
2017-06-25T07:04:38.394Z,-55
2017-06-25T07:07:05.665Z,-55
2017-06-25T07:09:32.951Z,-56
2017-06-25T07:12:00.240Z,-54
2017-06-25T07:14:27.539Z,-56
2017-06-25T07:16:54.839Z,-55
2017-06-25T07:19:22.131Z,-55
2017-06-25T07:21:49.401Z,-56
2017-06-25T07:24:16.676Z,-55
2017-06-25T07:26:43.962Z,-56
2017-06-25T07:29:11.252Z,-54
2017-06-25T07:31:38.544Z,-55
2017-06-25T07:34:05.817Z,-56
2017-06-25T07:36:33.094Z,-55
2017-06-25T07:39:00.360Z,-56
2017-06-25T07:41:27.637Z,-55
2017-06-25T07:43:54.917Z,-56
2017-06-25T07:46:22.210Z,-55
2017-06-25T07:48:49.468Z,-56
2017-06-25T07:51:16.736Z,-55
2017-06-25T07:53:44.421Z,-56
2017-06-25T07:56:11.703Z,-55
2017-06-25T07:58:39.150Z,-55
2017-06-25T08:01:06.448Z,-55
2017-06-25T08:03:33.708Z,-55
2017-06-25T08:06:00.995Z,-56
2017-06-25T08:08:28.282Z,-55
2017-06-25T08:10:55.566Z,-55
2017-06-25T08:13:22.841Z,-55
2017-06-25T08:15:50.130Z,-55
2017-06-25T08:18:17.414Z,-55
2017-06-25T08:20:44.684Z,-55
2017-06-25T08:23:11.948Z,-56
2017-06-25T08:25:39.213Z,-56
2017-06-25T08:28:06.485Z,-55
2017-06-25T08:30:33.779Z,-56
2017-06-25T08:33:01.063Z,-55
2017-06-25T08:35:28.351Z,-54
2017-06-25T08:37:55.647Z,-55
2017-06-25T08:40:22.920Z,-56
2017-06-25T08:42:50.210Z,-54
2017-06-25T08:45:17.499Z,-56
2017-06-25T08:47:44.768Z,-55
2017-06-25T08:50:12.048Z,-56
2017-06-25T08:52:39.312Z,-55
2017-06-25T08:55:06.592Z,-55
2017-06-25T08:57:33.878Z,-54
2017-06-25T09:00:01.140Z,-55
2017-06-25T09:02:28.412Z,-56
2017-06-25T09:04:55.707Z,-54
2017-06-25T09:07:22.973Z,-56
2017-06-25T09:09:50.254Z,-55
2017-06-25T09:12:17.568Z,-55
2017-06-25T09:14:44.860Z,-55
2017-06-25T09:17:12.152Z,-55
2017-06-25T09:19:39.426Z,-55
2017-06-25T09:22:06.696Z,-56
2017-06-25T09:24:33.994Z,-58
2017-06-25T09:27:01.282Z,-55
2017-06-25T09:29:28.558Z,-56
2017-06-25T09:31:55.844Z,-55
2017-06-25T09:34:23.135Z,-56
2017-06-25T09:36:50.408Z,-55
2017-06-25T09:39:17.707Z,-55
2017-06-25T09:41:45.007Z,-55
2017-06-25T09:44:12.287Z,-55
2017-06-25T09:46:39.608Z,-55
2017-06-25T09:49:06.710Z,-56
2017-06-25T09:51:34.375Z,-56
2017-06-25T09:54:01.667Z,-55
2017-06-25T09:56:28.955Z,-54
2017-06-25T09:58:56.224Z,-55
2017-06-25T10:01:23.901Z,-56
2017-06-25T10:03:51.178Z,-54
2017-06-25T10:06:18.472Z,-55
2017-06-25T10:08:45.762Z,-55
2017-06-25T10:11:13.060Z,-55
2017-06-25T10:13:40.403Z,-55
2017-06-25T10:16:07.690Z,-54
2017-06-25T10:18:34.963Z,-55
2017-06-25T10:21:02.651Z,-55
2017-06-25T10:23:29.926Z,-55
2017-06-25T10:25:57.220Z,-54
2017-06-25T10:28:24.494Z,-55
2017-06-25T10:30:52.168Z,-55
2017-06-25T10:33:19.444Z,-56
2017-06-25T10:35:46.726Z,-55
2017-06-25T10:38:13.996Z,-55
2017-06-25T10:40:41.276Z,-56
2017-06-25T10:43:08.553Z,-56
2017-06-25T10:45:35.820Z,-55
2017-06-25T10:48:03.107Z,-54
2017-06-25T10:50:30.408Z,-56
2017-06-25T10:52:57.703Z,-55
2017-06-25T10:55:24.986Z,-56
2017-06-25T10:57:52.666Z,-56
2017-06-25T11:00:19.946Z,-55
2017-06-25T11:02:47.237Z,-55
2017-06-25T11:05:14.517Z,-55
2017-06-25T11:07:41.912Z,-54
2017-06-25T11:10:09.202Z,-54
2017-06-25T11:12:36.468Z,-56
2017-06-25T11:15:03.750Z,-55
2017-06-25T11:17:31.037Z,-55
2017-06-25T11:19:58.318Z,-56
2017-06-25T11:22:25.982Z,-55
2017-06-25T11:24:53.264Z,-56
2017-06-25T11:27:20.537Z,-55
2017-06-25T11:29:47.818Z,-54
2017-06-25T11:32:15.080Z,-56
2017-06-25T11:34:42.364Z,-56
2017-06-25T11:37:09.638Z,-56
2017-06-25T11:39:36.901Z,-57
2017-06-25T11:42:04.173Z,-55
2017-06-25T11:44:31.463Z,-56
2017-06-25T11:46:58.737Z,-55
2017-06-25T11:49:26.012Z,-55
2017-06-25T11:51:53.299Z,-57
2017-06-25T11:54:20.924Z,-57
2017-06-25T11:56:48.243Z,-57
2017-06-25T11:59:15.727Z,-57
2017-06-25T12:01:43.017Z,-57
2017-06-25T12:04:10.299Z,-56
2017-06-25T12:06:37.560Z,-58
2017-06-25T12:09:05.240Z,-57
2017-06-25T12:11:32.513Z,-57
2017-06-25T12:13:59.798Z,-56
2017-06-25T12:16:27.063Z,-59
2017-06-25T12:18:54.350Z,-59
2017-06-25T12:21:21.616Z,-56
2017-06-25T12:23:48.912Z,-57
2017-06-25T12:26:16.187Z,-57
2017-06-25T12:28:43.469Z,-57
2017-06-25T12:31:10.739Z,-58
2017-06-25T12:33:38.102Z,-57
2017-06-25T12:36:05.365Z,-58
2017-06-25T12:38:32.637Z,-57
2017-06-25T12:41:01.682Z,-58
2017-06-25T12:53:08.995Z,-58
2017-06-25T12:55:36.272Z,-56
2017-06-25T12:58:03.671Z,-58
2017-06-25T13:00:30.963Z,-58
2017-06-25T13:02:58.255Z,-57
2017-06-25T13:05:25.525Z,-58
2017-06-25T13:07:52.792Z,-58
2017-06-25T13:10:20.084Z,-57
2017-06-25T13:12:48.170Z,-58
2017-06-25T13:15:15.459Z,-58
2017-06-25T13:17:42.736Z,-57
2017-06-25T13:20:10.009Z,-58
2017-06-25T13:22:37.298Z,-58
2017-06-25T13:30:22.240Z,-82
2017-06-25T13:32:49.526Z,-84
2017-06-25T13:35:16.817Z,-81
2017-06-25T13:37:44.505Z,-82
2017-06-25T13:40:11.783Z,-84
2017-06-25T13:42:39.082Z,-82
2017-06-25T13:45:06.375Z,-83
2017-06-25T13:47:33.787Z,-83
2017-06-25T13:50:01.504Z,-83
2017-06-25T13:52:28.825Z,-83
2017-06-25T13:54:56.683Z,-83
2017-06-25T13:57:24.090Z,-83
2017-06-25T13:59:51.388Z,-84
2017-06-25T14:02:18.703Z,-82
2017-06-25T14:04:46.009Z,-84
2017-06-25T14:07:13.320Z,-84
2017-06-25T14:09:40.628Z,-82
2017-06-25T14:12:07.973Z,-81
2017-06-25T14:14:35.257Z,-83
2017-06-25T14:17:02.551Z,-84
2017-06-25T14:19:29.848Z,-84
2017-06-25T14:21:57.141Z,-85
2017-06-25T14:24:24.437Z,-82
2017-06-25T14:26:51.740Z,-81
2017-06-25T14:29:19.101Z,-82
2017-06-25T14:31:46.390Z,-81
2017-06-25T14:34:13.669Z,-84
2017-06-25T14:36:40.966Z,-84
2017-06-25T14:39:08.272Z,-83
2017-06-25T14:41:35.582Z,-83
2017-06-25T14:44:02.871Z,-83
2017-06-25T14:46:30.959Z,-83
2017-06-25T14:48:58.740Z,-83
2017-06-25T14:51:26.047Z,-84
2017-06-25T14:53:53.528Z,-83
2017-06-25T14:56:20.953Z,-82
2017-06-25T14:58:48.665Z,-83
2017-06-25T15:01:16.662Z,-83
2017-06-25T15:03:44.621Z,-80
2017-06-25T15:06:11.988Z,-82
2017-06-25T15:08:39.284Z,-79
2017-06-25T15:11:06.589Z,-80
2017-06-25T15:13:33.894Z,-79
2017-06-25T15:16:01.193Z,-79
2017-06-25T15:18:28.486Z,-79
2017-06-25T15:20:55.795Z,-81
2017-06-25T15:23:27.429Z,-78
2017-06-25T15:25:54.754Z,-80
2017-06-25T15:28:22.272Z,-82
2017-06-25T15:30:50.557Z,-81
2017-06-25T15:33:17.853Z,-83
2017-06-25T15:35:45.148Z,-83
2017-06-25T15:38:12.466Z,-82
2017-06-25T15:40:39.753Z,-82
2017-06-25T15:43:09.201Z,-83
2017-06-25T15:45:36.525Z,-82
2017-06-25T15:48:03.812Z,-84
2017-06-25T15:50:31.114Z,-82
2017-06-25T15:52:58.418Z,-84
2017-06-25T15:55:25.733Z,-81
2017-06-25T15:57:53.033Z,-82
2017-06-25T16:00:20.342Z,-84
2017-06-25T16:02:48.043Z,-83
2017-06-25T16:05:15.336Z,-84
2017-06-25T16:07:42.665Z,-84
2017-06-25T16:10:10.009Z,-83
2017-06-25T16:12:37.304Z,-84
2017-06-25T16:15:05.000Z,-84
2017-06-25T16:17:32.692Z,-84
2017-06-25T16:19:59.998Z,-83
2017-06-25T16:22:27.288Z,-83
2017-06-25T16:24:54.583Z,-84
2017-06-25T16:27:21.896Z,-83
2017-06-25T16:29:49.197Z,-84
2017-06-25T16:32:16.499Z,-84
2017-06-25T16:34:43.835Z,-83
2017-06-25T16:37:11.126Z,-82
2017-06-25T16:39:38.432Z,-83
2017-06-25T16:42:05.746Z,-83
2017-06-25T16:44:33.035Z,-83
2017-06-25T16:47:00.302Z,-83
2017-06-25T16:49:27.610Z,-84
2017-06-25T16:51:55.292Z,-84
2017-06-25T16:54:22.983Z,-83
2017-06-25T16:56:50.280Z,-84
2017-06-25T16:59:17.549Z,-84
2017-06-25T17:01:44.834Z,-84
2017-06-25T17:04:12.144Z,-84
2017-06-25T17:06:39.445Z,-84
2017-06-25T17:09:06.743Z,-84
2017-06-25T17:11:34.057Z,-80
2017-06-25T17:14:01.381Z,-80
2017-06-25T17:16:28.676Z,-80
2017-06-25T17:18:55.984Z,-79
2017-06-25T17:21:23.673Z,-78
2017-06-25T17:23:50.970Z,-81
2017-06-25T17:26:18.241Z,-79
2017-06-25T17:28:45.513Z,-81
2017-06-25T17:31:12.809Z,-81
2017-06-25T17:33:40.094Z,-79
2017-06-25T17:36:07.373Z,-78
2017-06-25T17:38:35.536Z,-81
2017-06-25T17:41:02.852Z,-79
2017-06-25T17:43:30.534Z,-80
2017-06-25T17:45:58.225Z,-81
2017-06-25T17:48:25.536Z,-82
2017-06-25T17:50:52.814Z,-83
2017-06-25T17:53:20.128Z,-81
2017-06-25T17:55:48.033Z,-79
2017-06-25T17:58:15.696Z,-79
2017-06-25T18:00:43.017Z,-81
2017-06-25T18:03:10.706Z,-79
2017-06-25T18:05:38.121Z,-81
2017-06-25T18:08:05.496Z,-81
2017-06-25T18:10:33.206Z,-80
2017-06-25T18:13:00.526Z,-80
2017-06-25T18:15:27.895Z,-79
2017-06-25T18:17:55.277Z,-80
2017-06-25T18:20:22.810Z,-79
2017-06-25T18:22:50.188Z,-79
2017-06-25T18:25:17.523Z,-78
2017-06-25T18:27:44.970Z,-79
2017-06-25T18:30:12.909Z,-79
2017-06-25T18:32:40.470Z,-80
2017-06-25T18:35:07.903Z,-81
2017-06-25T18:37:35.853Z,-80
2017-06-25T18:40:03.453Z,-81
2017-06-25T18:42:33.031Z,-81
2017-06-25T18:45:01.351Z,-79
2017-06-25T18:47:29.227Z,-80
2017-06-25T18:49:56.805Z,-82
2017-06-25T18:52:24.340Z,-80
2017-06-25T18:54:51.845Z,-81
2017-06-25T18:57:19.724Z,-79
2017-06-25T18:59:47.432Z,-81
2017-06-25T19:02:15.541Z,-80
2017-06-25T19:04:43.508Z,-79
2017-06-25T19:07:11.928Z,-81
2017-06-25T19:09:39.845Z,-81
2017-06-25T19:12:07.766Z,-82
2017-06-25T19:14:35.865Z,-78
2017-06-25T19:17:04.198Z,-80
2017-06-25T19:19:32.706Z,-79
2017-06-25T19:22:00.411Z,-83
2017-06-25T19:24:28.493Z,-81
2017-06-25T19:26:57.078Z,-81
2017-06-25T19:29:26.015Z,-78
2017-06-25T19:31:55.024Z,-78
2017-06-25T19:34:23.377Z,-79
2017-06-25T19:36:51.836Z,-82
2017-06-25T19:39:20.424Z,-82
2017-06-25T19:41:48.939Z,-81
2017-06-25T19:44:17.156Z,-82
2017-06-25T19:46:45.380Z,-81
2017-06-25T19:49:13.334Z,-82
2017-06-25T19:51:43.340Z,-82
2017-06-25T19:54:11.626Z,-80
2017-06-25T19:56:39.255Z,-80
2017-06-25T19:59:07.430Z,-80
2017-06-25T20:01:35.575Z,-82
2017-06-25T20:04:03.585Z,-80
2017-06-25T20:06:31.544Z,-80
2017-06-25T20:08:58.931Z,-80
2017-06-25T20:11:26.255Z,-81
2017-06-25T20:13:53.766Z,-80
2017-06-25T20:16:21.102Z,-80
2017-06-25T20:18:48.417Z,-82
2017-06-25T20:21:16.226Z,-80
2017-06-25T20:23:49.142Z,-80
2017-06-25T20:26:16.475Z,-78
2017-06-25T20:28:44.523Z,-79
2017-06-25T20:31:12.405Z,-79
2017-06-25T20:33:40.169Z,-80
2017-06-25T20:36:07.537Z,-80
2017-06-25T20:38:35.286Z,-80
2017-06-25T20:41:02.694Z,-81
2017-06-25T20:43:30.098Z,-80
2017-06-25T20:45:57.832Z,-80
2017-06-25T20:48:25.227Z,-79
2017-06-25T20:50:53.175Z,-80
2017-06-25T20:53:20.876Z,-78
2017-06-25T20:55:48.390Z,-82
2017-06-25T20:58:15.695Z,-81
2017-06-25T21:00:43.003Z,-79
2017-06-25T21:03:10.302Z,-79
2017-06-25T21:05:37.806Z,-79
2017-06-25T21:08:08.110Z,-78
2017-06-25T21:10:35.314Z,-79
2017-06-25T21:13:02.921Z,-80
2017-06-25T21:15:30.464Z,-80
2017-06-25T21:17:57.830Z,-80
2017-06-25T21:20:32.478Z,-78
2017-06-25T21:22:59.909Z,-79
2017-06-25T21:25:30.221Z,-80
2017-06-25T21:27:57.927Z,-80
2017-06-25T21:30:25.254Z,-79
2017-06-25T21:32:52.599Z,-79
2017-06-25T21:35:25.376Z,-79
2017-06-25T21:37:58.585Z,-79
2017-06-25T21:40:28.785Z,-79
2017-06-25T21:42:56.321Z,-79
2017-06-25T21:45:23.604Z,-80
2017-06-25T21:47:50.881Z,-81
2017-06-25T21:50:19.125Z,-79
2017-06-25T21:52:47.636Z,-80
2017-06-25T21:55:15.136Z,-80
2017-06-25T21:57:42.409Z,-80
2017-06-25T22:00:10.720Z,-79
2017-06-25T22:02:38.040Z,-80
2017-06-25T22:05:05.326Z,-83
2017-06-25T22:07:32.624Z,-79
2017-06-25T22:09:59.898Z,-80
2017-06-25T22:12:30.397Z,-79
2017-06-25T22:14:57.703Z,-81
2017-06-25T22:17:30.846Z,-79
2017-06-25T22:20:01.335Z,-80
2017-06-25T22:22:28.811Z,-81
2017-06-25T22:24:55.987Z,-81
2017-06-25T22:27:23.803Z,-79
2017-06-25T22:29:51.712Z,-82
2017-06-25T22:32:19.051Z,-80
2017-06-25T22:34:51.418Z,-79
2017-06-25T22:37:18.721Z,-80
2017-06-25T22:39:46.010Z,-82
2017-06-25T22:42:13.717Z,-80
2017-06-25T22:44:41.044Z,-80
2017-06-25T22:47:11.417Z,-81
2017-06-25T22:49:38.733Z,-81
2017-06-25T22:52:06.023Z,-81
2017-06-25T22:54:33.181Z,-82
2017-06-25T22:57:07.502Z,-82
2017-06-25T22:59:34.874Z,-82
2017-06-25T23:02:02.182Z,-82
2017-06-25T23:04:29.754Z,-80
2017-06-25T23:06:57.090Z,-80
2017-06-25T23:09:24.463Z,-91
2017-06-25T23:11:51.990Z,-93
2017-06-25T23:14:20.006Z,-92
2017-06-25T23:16:47.717Z,-92
2017-06-25T23:19:18.163Z,-93
2017-06-25T23:21:48.786Z,-91
2017-06-25T23:24:23.326Z,-93
2017-06-25T23:26:50.682Z,-91
2017-06-25T23:29:21.135Z,-92
2017-06-25T23:31:55.297Z,-91
2017-06-25T23:34:23.173Z,-91
2017-06-25T23:36:50.740Z,-90
2017-06-25T23:39:18.133Z,-91
2017-06-25T23:41:45.578Z,-92
2017-06-25T23:44:13.310Z,-90
2017-06-25T23:46:40.852Z,-92
2017-06-25T23:49:08.476Z,-93
2017-06-25T23:51:35.765Z,-90
2017-06-25T23:54:02.972Z,-91
2017-06-25T23:56:35.899Z,-90
2017-06-25T23:59:03.431Z,-91
